Lone Star Executive Airport
KCXO : rendu visible

Aérodrome :











RETROUVEZ-NOUS SUR...

 
LOGIN :

S'inscrire | Disclaimer

   EN    FR    IT 

 









Légende :    VFR   VFR Marginal   IFR   IFR Intensif   IFR Très Intensif
Visi : 
Plafond : 
>= 8 km
>= 3000ft
5 à 8 km
1000 à 3000 ft
1500m à 5 km
500 à 1000 ft
800 à 1500m
200 à 500 ft
< 800m
< 200 ft
Symboles :   Orages  Brouillard  Fortes neiges  Fortes précipitations  Vent > 20 kt







- Altitude de l'aérodrome : 245 ft


KCXO - Lone Star Executive

DERNIER METAR :
  • 191445Z 21009KT 6SM HZ FEW014 SCT027 BKN033 28/24 A2987 RMK AO2 T02830244

METARs EXPIRÉS :
  • 191353Z 20006KT 6SM BR FEW010 BKN018 OVC024 27/24 A2987 RMK AO2 SLP110 T02670244
  • 191317Z 00000KT 3SM BR BKN010 BKN018 OVC042 26/24 A2986 RMK AO2 T02560244
  • 191259Z 00000KT 4SM BR FEW008 SCT012 OVC042 25/24 A2985 RMK AO2 T02500239
  • 191253Z 00000KT 4SM BR BKN011 OVC040 25/24 A2985 RMK AO2 SLP104 T02500239
  • 191237Z 00000KT 3SM BR BKN011 OVC040 25/24 A2984 RMK AO2 T02500239
  • 191230Z 00000KT 2 1/2SM BR BKN012 OVC040 24/24 A2984 RMK AO2 T02440239
  • 191211Z 00000KT 2 1/2SM BR BKN009 OVC016 24/23 A2983 RMK AO2 T02390228
  • 191203Z 00000KT 3SM BR FEW008 OVC014 24/23 A2983 RMK AO2 T02390233
  • 191153Z 00000KT 3SM BR SCT012 OVC017 24/23 A2982 RMK AO2 SLP094 70006 T02440233 10256 20244 53009

TAF KCXO
Valide du 19 à 13h jusqu'au 20 à 12h UTC


191253Z 1913/2012 00000KT 3SM BR BKN015 OVC040
FM191500 21008KT P6SM SCT025 BKN035
FM191800 19007KT P6SM SCT025 BKN045
FM200000 14005KT P6SM SCT050
FM200900 15004KT 4SM BR OVC015
FIR KZHU / Amérique du Nord



MET'MAP, la Météo Aéronautique d'un coup d'oeil ! - Copyright ORBIFLY Décembre 2007 - Disclaimer

ORBIFLY MET'MAP TEAM :

Programmation & Développement : Alexandra Zaïnal
Conception & Développement : Baudouin d'Aumeries
Co-Programmation & Développement : Marc-Olivier Méhu
Soutien technique & logistique : Manuel Goepfert

Contact : metmap@orbifly.com




SOURCES & CREDITS :

   NOAA       Earth
Advisory